createdAt,value
2023-05-10T00:00:49.528Z,2.80
2023-05-10T00:03:16.841Z,2.67
2023-05-10T00:05:45.264Z,3.10
2023-05-10T00:08:12.602Z,3.17
2023-05-10T00:10:40.022Z,2.70
2023-05-10T00:13:06.998Z,2.75
2023-05-10T00:15:35.632Z,2.87
2023-05-10T00:18:03.149Z,2.90
2023-05-10T00:20:30.726Z,3.08
2023-05-10T00:22:57.765Z,3.28
2023-05-10T00:25:25.136Z,3.03
2023-05-10T00:27:53.040Z,2.92
2023-05-10T00:30:20.442Z,3.20
2023-05-10T00:32:49.174Z,3.30
2023-05-10T00:35:16.958Z,3.37
2023-05-10T00:37:44.045Z,2.90
2023-05-10T00:40:11.938Z,3.40
2023-05-10T00:42:39.001Z,3.33
2023-05-10T00:45:08.224Z,3.12
2023-05-10T00:47:36.442Z,3.47
2023-05-10T00:50:03.985Z,3.33
2023-05-10T00:52:31.597Z,2.97
2023-05-10T00:54:59.416Z,3.58
2023-05-10T00:57:26.563Z,3.37
2023-05-10T00:59:53.633Z,3.53
2023-05-10T01:02:20.976Z,2.75
2023-05-10T01:04:48.385Z,3.45
2023-05-10T01:07:15.469Z,3.12
2023-05-10T01:09:43.761Z,3.33
2023-05-10T01:12:12.586Z,3.78
2023-05-10T01:14:40.232Z,3.42
2023-05-10T01:17:10.290Z,2.67
2023-05-10T01:19:39.053Z,4.10
2023-05-10T01:22:08.818Z,3.03
2023-05-10T01:24:45.566Z,4.10
2023-05-10T01:27:33.710Z,3.67
2023-05-10T01:30:15.532Z,3.80
2023-05-10T01:33:01.829Z,3.92
2023-05-10T01:35:42.064Z,3.42
2023-05-10T01:38:26.804Z,3.55
2023-05-10T01:40:57.166Z,3.47
2023-05-10T01:43:29.243Z,4.50
2023-05-10T01:46:11.214Z,4.60
2023-05-10T01:48:55.634Z,4.00
2023-05-10T01:54:01.751Z,3.70
2023-05-10T01:56:31.820Z,3.80
2023-05-10T01:59:01.205Z,3.60
2023-05-10T02:01:28.970Z,4.47
2023-05-10T02:03:57.939Z,3.55
2023-05-10T02:06:26.263Z,3.80
2023-05-10T02:08:54.830Z,3.42
2023-05-10T02:11:24.048Z,3.67
2023-05-10T02:13:54.430Z,4.45
2023-05-10T02:18:57.788Z,3.35
2023-05-10T02:21:27.016Z,4.07
2023-05-10T02:23:56.237Z,3.80
2023-05-10T02:26:26.031Z,3.72
2023-05-10T02:28:54.647Z,4.10
2023-05-10T02:31:23.338Z,4.35
2023-05-10T02:33:52.133Z,4.22
2023-05-10T02:36:21.139Z,3.72
2023-05-10T02:38:50.753Z,3.78
2023-05-10T02:41:20.547Z,3.12
2023-05-10T02:43:52.321Z,3.37
2023-05-10T02:46:20.099Z,3.42
2023-05-10T02:48:47.800Z,2.92
2023-05-10T02:51:18.638Z,3.42
2023-05-10T02:53:49.286Z,3.12
2023-05-10T02:56:29.817Z,3.17
2023-05-10T02:58:57.287Z,3.50
2023-05-10T03:01:24.866Z,3.35
2023-05-10T03:03:51.982Z,3.17
2023-05-10T03:06:19.410Z,3.47
2023-05-10T03:08:46.730Z,3.65
2023-05-10T03:11:13.945Z,3.47
2023-05-10T03:13:44.813Z,3.58
2023-05-10T03:16:28.388Z,3.92
2023-05-10T03:19:02.862Z,3.72
2023-05-10T03:21:31.215Z,3.67
2023-05-10T03:24:19.498Z,3.05
2023-05-10T03:26:49.619Z,4.03
2023-05-10T03:29:18.636Z,3.37
2023-05-10T03:31:46.493Z,3.80
2023-05-10T03:34:14.721Z,3.40
2023-05-10T03:36:42.275Z,3.55
2023-05-10T03:39:11.135Z,3.60
2023-05-10T03:41:38.304Z,3.53
2023-05-10T03:44:05.616Z,3.75
2023-05-10T03:46:32.759Z,3.40
2023-05-10T03:49:00.491Z,3.83
2023-05-10T03:51:29.148Z,3.70
2023-05-10T03:53:56.683Z,3.50
2023-05-10T03:56:24.183Z,2.80
2023-05-10T03:58:51.766Z,3.58
2023-05-10T04:01:18.863Z,4.10
2023-05-10T04:03:47.380Z,3.65
2023-05-10T04:06:14.898Z,3.90
2023-05-10T04:08:42.070Z,3.37
2023-05-10T04:11:10.931Z,3.83
2023-05-10T04:13:39.462Z,3.60
2023-05-10T04:16:06.876Z,3.70
2023-05-10T04:18:34.240Z,3.67
2023-05-10T04:21:01.541Z,1.98
2023-05-10T04:23:28.914Z,3.67
2023-05-10T04:26:03.141Z,4.65
2023-05-10T04:28:30.191Z,3.50
2023-05-10T04:31:04.664Z,4.07
2023-05-10T04:35:59.930Z,4.10
2023-05-10T04:38:27.945Z,4.72
2023-05-10T04:40:55.636Z,4.10
2023-05-10T04:43:23.020Z,3.70
2023-05-10T04:45:51.240Z,3.62
2023-05-10T04:48:18.437Z,3.95
2023-05-10T04:50:45.820Z,3.72
2023-05-10T04:53:14.636Z,3.97
2023-05-10T04:55:43.199Z,4.68
2023-05-10T04:58:10.565Z,3.87
2023-05-10T05:00:37.842Z,4.15
2023-05-10T05:03:05.057Z,3.58
2023-05-10T05:05:47.145Z,3.42
2023-05-10T05:08:22.728Z,4.00
2023-05-10T05:10:51.225Z,3.75
2023-05-10T05:13:18.513Z,4.28
2023-05-10T05:15:45.599Z,3.37
2023-05-10T05:18:13.672Z,3.83
2023-05-10T05:20:40.878Z,4.35
2023-05-10T05:23:07.871Z,3.03
2023-05-10T05:25:35.218Z,3.22
2023-05-10T05:28:02.618Z,3.20
2023-05-10T05:30:29.862Z,3.60
2023-05-10T05:32:57.785Z,3.80
2023-05-10T05:35:25.136Z,4.25
2023-05-10T05:37:52.151Z,3.37
2023-05-10T05:40:19.814Z,3.60
2023-05-10T05:42:46.914Z,3.12
2023-05-10T05:45:14.343Z,3.20
2023-05-10T05:47:42.175Z,3.17
2023-05-10T05:50:09.765Z,3.15
2023-05-10T05:52:37.158Z,2.72
2023-05-10T05:55:04.828Z,3.12
2023-05-10T05:57:32.101Z,3.12
2023-05-10T05:59:59.314Z,3.83
2023-05-10T06:02:26.824Z,2.65
2023-05-10T06:04:54.332Z,2.62
2023-05-10T06:07:21.457Z,3.42
2023-05-10T06:09:48.541Z,2.67
2023-05-10T06:12:15.920Z,2.75
2023-05-10T06:14:42.999Z,3.92
2023-05-10T06:17:10.135Z,2.45
2023-05-10T06:19:37.829Z,2.67
2023-05-10T06:22:04.912Z,2.72
2023-05-10T06:24:31.953Z,2.92
2023-05-10T06:27:01.147Z,2.83
2023-05-10T06:29:28.163Z,2.75
2023-05-10T06:31:55.495Z,3.45
2023-05-10T06:34:22.935Z,2.55
2023-05-10T06:36:50.016Z,2.62
2023-05-10T06:39:17.189Z,2.87
2023-05-10T06:41:44.577Z,2.85
2023-05-10T06:44:11.661Z,2.87
2023-05-10T06:46:38.835Z,2.87
2023-05-10T06:49:06.249Z,2.83
2023-05-10T06:51:33.875Z,2.58
2023-05-10T06:54:01.212Z,2.97
2023-05-10T06:56:28.825Z,2.80
2023-05-10T06:58:56.828Z,2.62
2023-05-10T07:01:23.988Z,2.87
2023-05-10T07:15:55.334Z,3.75
2023-05-10T07:18:22.842Z,3.65
2023-05-10T07:20:50.002Z,3.05
2023-05-10T07:23:18.825Z,3.95
2023-05-10T07:25:47.641Z,2.95
2023-05-10T07:28:16.343Z,3.05
2023-05-10T07:30:43.817Z,3.65
2023-05-10T07:33:13.668Z,4.57
2023-05-10T07:35:40.830Z,3.28
2023-05-10T07:38:07.937Z,3.58
2023-05-10T07:40:35.314Z,2.78
2023-05-10T07:43:03.182Z,2.40
2023-05-10T07:45:30.377Z,2.90
2023-05-10T07:47:57.868Z,3.33
2023-05-10T07:50:24.986Z,2.67
2023-05-10T07:52:52.823Z,3.50
2023-05-10T07:55:22.149Z,2.65
2023-05-10T07:57:49.223Z,2.92
2023-05-10T08:00:20.997Z,5.35
2023-05-10T08:02:49.066Z,3.22
2023-05-10T08:05:16.686Z,2.65
2023-05-10T08:07:44.005Z,2.72
2023-05-10T08:10:14.358Z,2.95
2023-05-10T08:12:41.489Z,3.75
2023-05-10T08:15:09.796Z,2.72
2023-05-10T08:17:37.229Z,3.00
2023-05-10T08:20:04.637Z,2.83
2023-05-10T08:22:31.855Z,3.15
2023-05-10T08:24:59.244Z,3.35
2023-05-10T08:27:26.390Z,2.97
2023-05-10T08:29:53.476Z,3.03
2023-05-10T08:32:20.898Z,2.67
2023-05-10T08:34:48.041Z,3.03
2023-05-10T08:37:15.155Z,2.95
2023-05-10T08:39:42.559Z,2.95
2023-05-10T08:42:10.362Z,2.45
2023-05-10T08:44:37.994Z,3.00
2023-05-10T08:47:09.902Z,2.95
2023-05-10T08:49:38.552Z,2.80
2023-05-10T08:52:08.460Z,3.83
2023-05-10T08:54:35.706Z,2.67
2023-05-10T08:57:03.002Z,3.37
2023-05-10T08:59:31.129Z,2.78
2023-05-10T09:02:02.100Z,2.40
2023-05-10T09:04:30.492Z,2.60
2023-05-10T09:06:58.440Z,2.80
2023-05-10T09:09:26.768Z,2.22
2023-05-10T09:11:54.869Z,3.30
2023-05-10T09:14:25.907Z,3.72
2023-05-10T09:16:54.996Z,3.08
2023-05-10T09:19:22.388Z,3.60
2023-05-10T09:21:50.404Z,5.05
2023-05-10T09:24:17.585Z,2.97
2023-05-10T09:26:52.302Z,4.05
2023-05-10T09:29:19.544Z,3.65
2023-05-10T09:31:51.980Z,2.45
2023-05-10T09:34:21.473Z,2.90
2023-05-10T09:36:57.293Z,2.45
2023-05-10T09:39:40.041Z,2.12
2023-05-10T09:42:11.394Z,2.03
2023-05-10T09:44:39.352Z,2.78
2023-05-10T09:47:06.430Z,2.33
2023-05-10T09:49:34.266Z,2.70
2023-05-10T09:52:05.497Z,2.42
2023-05-10T09:54:33.865Z,2.15
2023-05-10T09:57:01.754Z,2.45
2023-05-10T09:59:29.561Z,2.28
2023-05-10T10:02:01.184Z,2.08
2023-05-10T10:04:29.208Z,4.87
2023-05-10T10:07:06.199Z,2.45
2023-05-10T10:09:35.363Z,2.10
2023-05-10T10:12:03.745Z,2.33
2023-05-10T10:14:31.093Z,2.60
2023-05-10T10:19:34.541Z,2.33
2023-05-10T10:22:02.158Z,2.47
2023-05-10T10:24:29.290Z,2.37
2023-05-10T10:27:03.211Z,2.20
2023-05-10T10:29:52.918Z,2.70
2023-05-10T10:32:48.294Z,2.33
2023-05-10T10:35:17.026Z,2.50
2023-05-10T10:37:46.253Z,2.15
2023-05-10T10:40:34.877Z,2.30
2023-05-10T10:43:27.754Z,2.60
2023-05-10T10:46:17.905Z,1.92
2023-05-10T10:48:50.774Z,1.98
2023-05-10T10:51:17.954Z,1.87
2023-05-10T10:53:45.883Z,3.85
2023-05-10T10:56:16.170Z,1.70
2023-05-10T10:58:54.744Z,1.98
2023-05-10T11:01:22.286Z,1.58
2023-05-10T11:04:01.567Z,1.60
2023-05-10T11:06:33.536Z,3.30
2023-05-10T11:09:06.789Z,1.85
2023-05-10T11:11:36.162Z,1.60
2023-05-10T11:14:08.118Z,2.10
2023-05-10T11:16:44.042Z,2.50
2023-05-10T11:19:18.581Z,1.37
2023-05-10T11:22:14.031Z,1.48
2023-05-10T11:24:41.220Z,1.90
2023-05-10T11:27:08.991Z,2.00
2023-05-10T11:29:36.112Z,1.73
2023-05-10T11:32:05.457Z,1.58
2023-05-10T11:34:35.953Z,1.77
2023-05-10T11:37:03.184Z,1.58
2023-05-10T11:39:32.048Z,1.20
2023-05-10T11:42:00.212Z,1.48
2023-05-10T11:44:33.683Z,1.85
2023-05-10T11:49:29.338Z,1.65
2023-05-10T11:52:09.871Z,1.50
2023-05-10T11:54:38.107Z,1.42
2023-05-10T11:57:05.373Z,2.10
2023-05-10T11:59:32.502Z,1.50
2023-05-10T12:02:00.227Z,1.45
2023-05-10T12:04:30.431Z,1.58
2023-05-10T12:06:57.882Z,1.40
2023-05-10T12:09:39.570Z,1.20
2023-05-10T12:12:10.915Z,1.50
2023-05-10T12:14:38.194Z,1.65
2023-05-10T12:17:05.543Z,1.40
2023-05-10T12:19:40.268Z,1.70
2023-05-10T12:22:07.545Z,1.60
2023-05-10T12:24:36.612Z,2.70
2023-05-10T12:27:09.454Z,1.62
2023-05-10T12:29:37.162Z,2.22
2023-05-10T12:32:04.252Z,1.40
2023-05-10T12:34:33.985Z,1.37
2023-05-10T12:37:01.878Z,1.37
2023-05-10T12:39:43.965Z,2.00
2023-05-10T12:42:11.973Z,1.42
2023-05-10T12:44:39.761Z,1.52
2023-05-10T12:47:07.077Z,1.45
2023-05-10T12:49:34.979Z,1.42
2023-05-10T12:52:02.313Z,1.40
2023-05-10T12:54:29.411Z,1.50
2023-05-10T12:56:56.732Z,1.45
2023-05-10T12:59:23.979Z,1.40
2023-05-10T13:01:51.164Z,1.10
2023-05-10T13:04:18.548Z,1.30
2023-05-10T13:06:45.548Z,1.30
2023-05-10T13:09:14.125Z,2.28
2023-05-10T13:11:41.482Z,2.53
2023-05-10T13:14:08.462Z,1.20
2023-05-10T13:16:35.625Z,1.83
2023-05-10T13:19:03.031Z,1.20
2023-05-10T13:21:30.074Z,1.20
2023-05-10T13:23:57.043Z,1.48
2023-05-10T13:26:24.380Z,1.45
2023-05-10T13:28:52.880Z,1.30
2023-05-10T13:31:20.104Z,1.45
2023-05-10T13:33:47.552Z,1.65
2023-05-10T13:36:14.597Z,1.52
2023-05-10T13:38:41.574Z,1.42
2023-05-10T13:41:08.902Z,1.30
2023-05-10T13:43:37.018Z,1.25
2023-05-10T13:46:04.117Z,1.50
2023-05-10T13:48:31.430Z,1.40
2023-05-10T13:50:58.405Z,5.07
2023-05-10T13:53:25.572Z,2.50
2023-05-10T13:55:52.849Z,1.60
2023-05-10T13:58:20.251Z,1.70
2023-05-10T14:00:47.318Z,2.55
2023-05-10T14:03:14.743Z,1.73
2023-05-10T14:05:41.955Z,3.10
2023-05-10T14:08:10.399Z,2.87
2023-05-10T14:10:38.014Z,2.12
2023-05-10T14:13:05.036Z,2.08
2023-05-10T14:15:31.990Z,1.60
2023-05-10T14:17:59.448Z,2.00
2023-05-10T14:20:26.987Z,2.00
2023-05-10T14:22:54.019Z,2.00
2023-05-10T14:25:21.352Z,2.00
2023-05-10T14:27:48.865Z,1.60
2023-05-10T14:30:16.031Z,1.55
2023-05-10T14:32:43.703Z,1.60
2023-05-10T14:35:13.649Z,1.62
2023-05-10T14:37:41.527Z,1.50
2023-05-10T14:40:10.296Z,1.30
2023-05-10T14:42:37.356Z,1.20
2023-05-10T14:45:05.157Z,1.27
2023-05-10T14:47:32.451Z,1.30
2023-05-10T14:49:59.531Z,1.12
2023-05-10T14:52:26.752Z,1.10
2023-05-10T14:54:54.636Z,1.52
2023-05-10T14:57:21.693Z,2.53
2023-05-10T14:59:49.048Z,2.28
2023-05-10T15:02:17.262Z,2.20
2023-05-10T15:04:44.857Z,1.15
2023-05-10T15:07:15.346Z,1.30
2023-05-10T15:09:42.787Z,1.15
2023-05-10T15:12:09.840Z,1.37
2023-05-10T15:14:37.657Z,1.12
2023-05-10T15:17:08.463Z,1.05
2023-05-10T15:19:35.551Z,1.42
2023-05-10T15:22:03.257Z,1.37
2023-05-10T15:24:30.727Z,1.35
2023-05-10T15:26:58.174Z,1.00
2023-05-10T15:29:25.349Z,0.80
2023-05-10T15:31:53.050Z,1.12
2023-05-10T15:34:20.257Z,1.00
2023-05-10T15:36:47.401Z,0.98
2023-05-10T15:39:14.784Z,0.90
2023-05-10T15:41:42.031Z,1.20
2023-05-10T15:44:09.133Z,1.17
2023-05-10T15:46:38.924Z,1.48
2023-05-10T15:49:06.797Z,1.37
2023-05-10T15:51:35.393Z,1.10
2023-05-10T15:54:07.564Z,1.17
2023-05-10T15:56:36.074Z,1.02
2023-05-10T15:59:03.967Z,1.02
2023-05-10T16:01:32.379Z,0.93
2023-05-10T16:04:00.689Z,2.12
2023-05-10T16:06:27.962Z,0.93
2023-05-10T16:08:55.059Z,1.25
2023-05-10T16:11:22.708Z,0.70
2023-05-10T16:13:49.860Z,1.50
2023-05-10T16:16:17.132Z,1.33
2023-05-10T16:18:44.752Z,1.40
2023-05-10T16:21:11.986Z,0.90
2023-05-10T16:23:39.721Z,1.20
2023-05-10T16:26:07.544Z,1.12
2023-05-10T16:28:35.210Z,1.40
2023-05-10T16:31:02.387Z,1.42
2023-05-10T16:33:29.780Z,2.08
2023-05-10T16:35:56.813Z,1.27
2023-05-10T16:38:23.907Z,1.37
2023-05-10T16:40:51.303Z,1.10
2023-05-10T16:43:19.274Z,1.15
2023-05-10T16:45:46.430Z,1.00
2023-05-10T16:48:13.985Z,1.20
2023-05-10T16:50:46.434Z,0.93
2023-05-10T16:53:14.076Z,0.82
2023-05-10T16:55:41.379Z,1.08
2023-05-10T16:58:08.454Z,1.23
2023-05-10T17:00:37.461Z,1.37
2023-05-10T17:03:04.653Z,1.12
2023-05-10T17:05:31.941Z,1.48
2023-05-10T17:07:59.382Z,1.60
2023-05-10T17:10:26.494Z,1.48
2023-05-10T17:12:53.778Z,1.40
2023-05-10T17:15:21.714Z,1.50
2023-05-10T17:17:48.923Z,0.95
2023-05-10T17:20:16.593Z,1.83
2023-05-10T17:22:43.953Z,1.30
2023-05-10T17:25:11.134Z,1.50
2023-05-10T17:27:38.289Z,1.45
2023-05-10T17:30:06.519Z,1.30
2023-05-10T17:32:34.020Z,1.52
2023-05-10T17:35:01.220Z,1.33
2023-05-10T17:37:28.652Z,1.37
2023-05-10T17:39:55.710Z,1.35
2023-05-10T17:42:22.779Z,1.50
2023-05-10T17:44:50.161Z,1.40
2023-05-10T17:47:18.018Z,1.20
2023-05-10T17:49:45.098Z,1.20
2023-05-10T17:52:12.513Z,1.40
2023-05-10T17:54:39.641Z,1.10
2023-05-10T17:57:06.763Z,1.42
2023-05-10T17:59:34.106Z,1.27
2023-05-10T18:02:01.817Z,1.20
2023-05-10T18:04:29.293Z,1.67
2023-05-10T18:07:01.559Z,1.30
2023-05-10T18:09:29.412Z,1.65
2023-05-10T18:11:56.496Z,1.30
2023-05-10T18:14:38.980Z,1.45
2023-05-10T18:17:09.530Z,1.40
2023-05-10T18:19:36.856Z,1.62
2023-05-10T18:22:04.319Z,1.42
2023-05-10T18:27:02.188Z,1.80
2023-05-10T18:29:31.643Z,1.80
2023-05-10T18:31:59.093Z,2.10
2023-05-10T18:34:26.370Z,1.50
2023-05-10T18:36:53.483Z,1.55
2023-05-10T18:39:21.031Z,1.50
2023-05-10T18:41:48.260Z,1.58
2023-05-10T18:44:15.513Z,1.87
2023-05-10T18:46:43.059Z,1.58
2023-05-10T18:49:10.270Z,1.75
2023-05-10T18:51:37.367Z,2.33
2023-05-10T18:54:04.748Z,1.67
2023-05-10T18:56:31.844Z,2.00
2023-05-10T18:58:58.914Z,1.77
2023-05-10T19:01:26.336Z,1.30
2023-05-10T19:03:53.442Z,1.45
2023-05-10T19:06:20.833Z,1.60
2023-05-10T19:08:48.232Z,1.40
2023-05-10T19:11:15.705Z,1.62
2023-05-10T19:13:42.895Z,1.50
2023-05-10T19:16:15.976Z,1.48
2023-05-10T19:18:44.149Z,1.30
2023-05-10T19:21:15.244Z,1.75
2023-05-10T19:23:43.848Z,1.70
2023-05-10T19:26:11.766Z,1.75
2023-05-10T19:28:39.554Z,1.60
2023-05-10T19:31:08.745Z,1.65
2023-05-10T19:33:36.462Z,1.27
2023-05-10T19:36:04.353Z,1.87
2023-05-10T19:38:31.568Z,1.70
2023-05-10T19:40:59.357Z,1.27
2023-05-10T19:43:28.350Z,1.20
2023-05-10T19:45:59.124Z,1.70
2023-05-10T19:48:27.202Z,1.42
2023-05-10T19:50:59.203Z,1.50
2023-05-10T19:53:27.813Z,1.65
2023-05-10T19:55:55.837Z,1.73
2023-05-10T19:58:23.484Z,1.45
2023-05-10T20:00:50.838Z,1.20
2023-05-10T20:03:18.141Z,1.75
2023-05-10T20:05:45.122Z,1.37
2023-05-10T20:08:12.217Z,1.62
2023-05-10T20:10:39.569Z,1.62
2023-05-10T20:13:06.547Z,2.65
2023-05-10T20:15:34.261Z,1.30
2023-05-10T20:18:03.525Z,1.40
2023-05-10T20:20:30.678Z,1.42
2023-05-10T20:22:57.665Z,1.92
2023-05-10T20:25:25.149Z,1.42
2023-05-10T20:27:52.326Z,1.58
2023-05-10T20:30:19.775Z,1.12
2023-05-10T20:32:47.458Z,1.42
2023-05-10T20:35:14.556Z,1.23
2023-05-10T20:37:41.588Z,1.27
2023-05-10T20:40:09.433Z,1.33
2023-05-10T20:42:36.500Z,1.55
2023-05-10T20:45:03.720Z,1.37
2023-05-10T20:47:31.039Z,1.15
2023-05-10T20:49:58.106Z,1.42
2023-05-10T20:52:25.070Z,1.10
2023-05-10T20:54:52.455Z,1.40
2023-05-10T20:57:20.039Z,1.02
2023-05-10T20:59:47.068Z,1.42
2023-05-10T21:02:14.337Z,1.35
2023-05-10T21:04:41.827Z,1.45
2023-05-10T21:07:08.871Z,1.50
2023-05-10T21:09:36.184Z,1.40
2023-05-10T21:12:03.479Z,1.58
2023-05-10T21:14:33.312Z,1.10
2023-05-10T21:17:00.667Z,1.52
2023-05-10T21:19:28.206Z,1.10
2023-05-10T21:21:57.098Z,1.37
2023-05-10T21:24:24.701Z,1.35
2023-05-10T21:26:52.107Z,1.30
2023-05-10T21:29:19.094Z,1.70
2023-05-10T21:31:46.433Z,1.10
2023-05-10T21:34:14.119Z,1.00
2023-05-10T21:36:41.129Z,1.70
2023-05-10T21:39:08.441Z,1.45
2023-05-10T21:41:35.858Z,1.50
2023-05-10T21:44:03.535Z,1.65
2023-05-10T21:46:31.024Z,1.17
2023-05-10T21:48:58.098Z,1.67
2023-05-10T21:51:25.087Z,1.30
2023-05-10T21:53:52.937Z,1.50
2023-05-10T21:56:19.943Z,1.33
2023-05-10T21:58:47.259Z,0.98
2023-05-10T22:01:17.068Z,1.17
2023-05-10T22:03:44.771Z,1.42
2023-05-10T22:06:11.901Z,1.30
2023-05-10T22:08:38.947Z,1.30
2023-05-10T22:11:06.213Z,1.37
2023-05-10T22:13:33.231Z,1.45
2023-05-10T22:16:00.612Z,1.90
2023-05-10T22:18:28.019Z,1.65
2023-05-10T22:20:55.027Z,1.30
2023-05-10T22:23:22.017Z,1.52
2023-05-10T22:25:49.431Z,1.87
2023-05-10T22:28:16.417Z,1.45
2023-05-10T22:30:43.575Z,2.03
2023-05-10T22:33:10.853Z,2.00
2023-05-10T22:35:37.969Z,1.65
2023-05-10T22:38:05.178Z,2.05
2023-05-10T22:40:32.708Z,1.95
2023-05-10T22:42:59.700Z,1.87
2023-05-10T22:45:27.166Z,1.55
2023-05-10T22:47:54.601Z,1.70
2023-05-10T22:50:21.771Z,2.05
2023-05-10T22:52:48.759Z,1.60
2023-05-10T22:55:16.248Z,1.60
2023-05-10T22:57:43.304Z,1.70
2023-05-10T23:00:10.905Z,1.80
2023-05-10T23:02:38.249Z,1.70
2023-05-10T23:05:07.061Z,1.95
2023-05-10T23:07:34.347Z,1.70
2023-05-10T23:10:02.137Z,2.05
2023-05-10T23:12:31.254Z,2.30
2023-05-10T23:14:58.251Z,2.00
2023-05-10T23:17:25.655Z,1.80
2023-05-10T23:19:52.669Z,2.17
2023-05-10T23:22:19.659Z,2.20
2023-05-10T23:24:47.010Z,2.25
2023-05-10T23:27:14.729Z,2.15
2023-05-10T23:29:41.958Z,2.08
2023-05-10T23:32:09.358Z,1.75
2023-05-10T23:34:36.446Z,1.75
2023-05-10T23:37:03.508Z,2.00
2023-05-10T23:39:30.843Z,2.03
2023-05-10T23:41:57.851Z,1.90
2023-05-10T23:44:24.826Z,1.95
2023-05-10T23:46:52.103Z,2.03
2023-05-10T23:49:19.488Z,1.70
2023-05-10T23:51:46.819Z,1.95
2023-05-10T23:54:14.153Z,2.10
2023-05-10T23:56:41.202Z,2.03
2023-05-10T23:59:08.303Z,2.22
